»·PEaware :: CGVZB YSCB-YRED

CGVZB :: YSCB-YRED

FLIGHT INFORMATION

Flight Status: Arrived
Operator: Unknown
More flights by this operator :: More flights under this callsign
Pilot: Alan S. (10569)
Aircraft: SOCATA TBM-900
(TBM9)
More flights by this aircraft type
Origin: YSCB Canberra
Australia
Destination: YRED Redcliffe
Australia
More flights between these airports :: More routes between these airports
Route: AVBEG1 AVBEG CULIN SY MATLA H133 LOSKU CASWM CG Q69 ITIDE Q69 SU
File this flight plan on PilotEdge
Remarks: Flyin in Straya
Altitude:
(Current/Filed)
31,000ft
Speed:
(Current/Filed)
290kts
Departed: 04-Apr-19 07:08 PM
Arrived: 04-Apr-19 10:04 PM
Distance/Time
Traveled:
525nm/2:56
Distance/Time
To Go:
Arrived

Flight Plot

Page will automatically refresh every two minutes.

Flight plan parsing failed; only flown route is shown


Map Options




Map Legend


Flown Route
Filed Route
Departure Airport
Arrival Airport
Navaid (VOR, NDB)
Fix

Horizontal Profiles

Position Reports

Time Latitude Longitude Heading Altitude Ground
Speed
04-Apr-19 18:33 -35.303894 149.187271 308 1856ft 0kts
04-Apr-19 18:34 -35.303894 149.187271 308 1856ft 0kts
04-Apr-19 18:35 -35.303894 149.187271 308 1856ft 0kts
04-Apr-19 18:36 -35.303894 149.187271 308 1856ft 0kts
04-Apr-19 18:37 -35.303894 149.187271 308 1856ft 0kts
04-Apr-19 18:38 -35.303894 149.187271 308 1856ft 0kts
04-Apr-19 18:39 -35.303894 149.187271 308 1856ft 0kts
04-Apr-19 18:40 -35.303894 149.187271 308 1856ft 0kts
04-Apr-19 18:40 -35.303894 149.187271 308 1856ft 0kts
04-Apr-19 18:42 -35.303894 149.187271 308 1856ft 0kts
04-Apr-19 18:43 -35.303894 149.187271 308 1856ft 0kts
04-Apr-19 18:44 -35.303894 149.187271 308 1856ft 0kts
04-Apr-19 18:44 -35.303894 149.187271 308 1856ft 0kts
04-Apr-19 18:46 -35.303894 149.187271 308 1856ft 0kts
04-Apr-19 18:47 -35.303890 149.187265 308 1856ft 0kts
04-Apr-19 18:47 -35.303890 149.187265 305 1856ft 0kts
04-Apr-19 18:48 -35.303890 149.187265 305 1856ft 0kts
04-Apr-19 18:49 -35.303890 149.187264 304 1856ft 0kts
04-Apr-19 18:50 -35.303890 149.187264 304 1856ft 0kts
04-Apr-19 18:51 -35.303890 149.187264 304 1856ft 0kts
04-Apr-19 18:52 -35.304047 149.186817 216 1855ft 2kts
04-Apr-19 18:53 -35.304456 149.188936 126 1859ft 10kts
04-Apr-19 18:54 -35.307200 149.192407 170 1868ft 6kts
04-Apr-19 18:55 -35.310858 149.192410 179 1870ft 14kts
04-Apr-19 18:56 -35.314654 149.193231 110 1869ft 0kts
04-Apr-19 18:57 -35.314654 149.193231 110 1869ft 0kts
04-Apr-19 18:58 -35.314654 149.193231 110 1869ft 0kts
04-Apr-19 18:59 -35.314654 149.193231 110 1869ft 0kts
04-Apr-19 19:00 -35.314654 149.193231 110 1869ft 0kts
04-Apr-19 19:01 -35.314654 149.193232 106 1869ft 0kts
04-Apr-19 19:02 -35.314654 149.193233 107 1869ft 0kts
04-Apr-19 19:03 -35.314654 149.193233 106 1869ft 0kts
04-Apr-19 19:04 -35.314654 149.193233 106 1869ft 0kts
04-Apr-19 19:05 -35.314654 149.193233 106 1869ft 0kts
04-Apr-19 19:06 -35.314651 149.194346 55 1872ft 11kts
04-Apr-19 19:07 -35.305614 149.194476 9 1894ft 111kts
04-Apr-19 19:13 -35.297073 149.194358 0 1871ft 0kts
04-Apr-19 19:14 -35.297004 149.194357 358 1871ft 0kts
04-Apr-19 19:15 -35.297004 149.194357 358 1871ft 0kts
04-Apr-19 19:16 -35.297004 149.194357 358 1871ft 0kts
04-Apr-19 19:17 -35.297004 149.194357 358 1871ft 0kts
04-Apr-19 19:18 -35.296934 149.194394 54 1871ft 6kts
04-Apr-19 19:19 -35.302599 149.194495 179 1875ft 32kts
04-Apr-19 19:20 -35.311319 149.194487 184 1872ft 31kts
04-Apr-19 19:21 -35.313811 149.194577 354 1873ft 2kts
04-Apr-19 19:22 -35.305675 149.194467 2 1872ft 104kts
04-Apr-19 19:23 -35.273073 149.196757 10 3335ft 119kts
04-Apr-19 19:24 -35.232574 149.201127 5 4228ft 171kts
04-Apr-19 19:25 -35.185079 149.206608 5 5711ft 169kts
04-Apr-19 19:26 -35.137677 149.212453 6 7257ft 174kts
04-Apr-19 19:27 -35.090530 149.226752 21 8809ft 179kts
04-Apr-19 19:28 -35.043265 149.248885 20 10314ft 186kts
04-Apr-19 19:29 -34.993873 149.271953 19 12038ft 193kts
04-Apr-19 19:30 -34.942740 149.295782 19 13516ft 202kts
04-Apr-19 19:31 -34.889245 149.320689 19 14865ft 210kts
04-Apr-19 19:32 -34.888699 149.320943 19 14879ft 210kts
04-Apr-19 19:33 -34.888699 149.320943 19 14879ft 210kts
04-Apr-19 19:34 -34.888517 149.321028 19 14883ft 210kts
04-Apr-19 19:35 -34.881894 149.324110 19 15034ft 211kts
04-Apr-19 19:36 -34.838740 149.344171 19 15972ft 217kts
04-Apr-19 19:37 -34.838740 149.344171 19 15972ft 217kts
04-Apr-19 19:38 -34.838719 149.344181 19 15972ft 217kts
04-Apr-19 19:39 -34.782918 149.370096 19 17123ft 220kts
04-Apr-19 19:40 -34.731832 149.408640 63 18099ft 227kts
04-Apr-19 19:41 -34.702143 149.477356 64 19025ft 232kts
04-Apr-19 19:42 -34.671705 149.547478 63 19869ft 236kts
04-Apr-19 19:43 -34.640689 149.618756 64 20633ft 240kts
04-Apr-19 19:44 -34.609252 149.690849 63 21330ft 244kts
04-Apr-19 19:45 -34.577113 149.764417 63 21961ft 247kts
04-Apr-19 19:46 -34.545098 149.837500 63 22825ft 238kts
04-Apr-19 19:47 -34.513752 149.908943 63 23488ft 242kts
04-Apr-19 19:48 -34.481823 149.981552 63 24092ft 245kts
04-Apr-19 19:49 -34.459844 150.031394 64 24467ft 247kts
04-Apr-19 19:50 -34.427095 150.105638 64 24976ft 251kts
04-Apr-19 19:51 -34.400335 150.166158 64 25366ft 254kts
04-Apr-19 19:52 -34.368255 150.238573 64 25793ft 257kts
04-Apr-19 19:53 -34.334086 150.315521 65 26193ft 261kts
04-Apr-19 19:54 -34.299327 150.393642 65 26599ft 263kts
04-Apr-19 19:55 -34.263771 150.473387 65 27128ft 275kts
04-Apr-19 19:56 -34.226494 150.556739 65 27699ft 286kts
04-Apr-19 19:57 -34.219969 150.571344 65 27795ft 287kts
04-Apr-19 19:58 -34.201940 150.611585 65 28058ft 291kts
04-Apr-19 19:59 -34.162830 150.698712 65 28593ft 295kts
04-Apr-19 20:00 -34.123149 150.786878 65 29106ft 298kts
04-Apr-19 20:01 -34.083136 150.875563 65 29626ft 300kts
04-Apr-19 20:02 -34.042824 150.964698 65 30149ft 301kts
04-Apr-19 20:03 -34.002401 151.053835 66 30673ft 302kts
04-Apr-19 20:04 -33.961819 151.142989 64 31211ft 303kts
04-Apr-19 20:05 -33.909890 151.192709 11 31490ft 308kts
04-Apr-19 20:06 -33.863938 151.206377 7 31479ft 316kts
04-Apr-19 20:07 -33.776180 151.232361 8 31475ft 327kts
04-Apr-19 20:08 -33.686908 151.258841 8 31463ft 333kts
04-Apr-19 20:09 -33.596694 151.285533 8 31450ft 336kts
04-Apr-19 20:10 -33.559957 151.296380 8 31448ft 336kts
04-Apr-19 20:11 -33.548779 151.299682 8 31449ft 337kts
04-Apr-19 20:12 -33.457489 151.326605 8 31449ft 338kts
04-Apr-19 20:13 -33.389888 151.346501 8 31450ft 338kts
04-Apr-19 20:14 -33.389888 151.346501 8 31450ft 338kts
04-Apr-19 20:15 -33.302750 151.372093 8 31456ft 347kts
04-Apr-19 20:16 -33.220506 151.396215 8 31451ft 347kts
04-Apr-19 20:17 -33.126326 151.423769 8 31453ft 346kts
04-Apr-19 20:18 -33.032536 151.451145 8 31455ft 347kts
04-Apr-19 20:19 -32.938382 151.478574 8 31457ft 347kts
04-Apr-19 20:20 -32.844755 151.505785 8 31444ft 346kts
04-Apr-19 20:21 -32.750687 151.533337 13 31441ft 347kts
04-Apr-19 20:22 -32.658664 151.568036 13 31448ft 347kts
04-Apr-19 20:23 -32.566508 151.602610 14 31449ft 347kts
04-Apr-19 20:24 -32.488586 151.631807 14 31451ft 347kts
04-Apr-19 20:25 -32.397539 151.665831 13 31442ft 348kts
04-Apr-19 20:26 -32.312742 151.697473 13 31445ft 347kts
04-Apr-19 20:27 -32.220304 151.731884 13 31447ft 348kts
04-Apr-19 20:28 -32.128108 151.766123 13 31449ft 348kts
04-Apr-19 20:29 -32.034905 151.800519 13 31450ft 349kts
04-Apr-19 20:30 -31.955123 151.829894 13 31452ft 349kts
04-Apr-19 20:31 -31.870741 151.860906 13 31437ft 350kts
04-Apr-19 20:32 -31.806983 151.884298 13 31436ft 348kts
04-Apr-19 20:33 -31.714535 151.918153 13 31422ft 348kts
04-Apr-19 20:34 -31.621793 151.952045 13 31416ft 348kts
04-Apr-19 20:36 -31.529335 151.985769 13 31419ft 348kts
04-Apr-19 20:37 -31.455104 152.012777 13 31418ft 347kts
04-Apr-19 20:38 -31.363884 152.045925 13 31421ft 348kts
04-Apr-19 20:39 -31.271309 152.079493 13 31422ft 349kts
04-Apr-19 20:40 -31.178694 152.113005 13 31424ft 349kts
04-Apr-19 20:41 -31.109672 152.137935 13 31425ft 350kts
04-Apr-19 20:42 -31.026187 152.168035 13 31428ft 350kts
04-Apr-19 20:43 -30.932766 152.201663 13 31428ft 350kts
04-Apr-19 20:44 -30.839726 152.235077 13 31414ft 349kts
04-Apr-19 20:45 -30.774127 152.258595 13 31416ft 348kts
04-Apr-19 20:46 -30.681502 152.291746 13 31416ft 347kts
04-Apr-19 20:47 -30.600418 152.320714 13 31419ft 347kts
04-Apr-19 20:48 -30.508182 152.353602 13 31421ft 347kts
04-Apr-19 20:49 -30.416962 152.391921 17 31422ft 348kts
04-Apr-19 20:50 -30.326013 152.431279 17 31424ft 349kts
04-Apr-19 20:51 -30.235086 152.470544 17 31426ft 349kts
04-Apr-19 20:52 -30.143854 152.509861 17 31427ft 350kts
04-Apr-19 20:53 -30.052643 152.549093 17 31426ft 351kts
04-Apr-19 20:54 -29.960775 152.588524 17 31412ft 351kts
04-Apr-19 20:54 -29.884143 152.621363 17 31391ft 351kts
04-Apr-19 20:56 -29.778072 152.666727 17 31384ft 348kts
04-Apr-19 20:57 -29.687290 152.705464 17 31385ft 346kts
04-Apr-19 20:57 -29.612246 152.737431 17 31387ft 345kts
04-Apr-19 20:58 -29.522198 152.775724 17 31389ft 345kts
04-Apr-19 21:00 -29.417076 152.820335 17 31392ft 345kts
04-Apr-19 21:00 -29.341827 152.852076 17 31406ft 345kts
04-Apr-19 21:01 -29.251351 152.890156 17 31420ft 345kts
04-Apr-19 21:02 -29.160753 152.928216 17 31417ft 346kts
04-Apr-19 21:04 -29.055135 152.972496 17 31414ft 347kts
04-Apr-19 21:04 -28.979795 153.004019 17 31413ft 347kts
04-Apr-19 21:05 -28.888658 153.042095 17 31396ft 347kts
04-Apr-19 21:06 -28.815708 153.086269 28 31389ft 347kts
04-Apr-19 21:07 -28.731694 153.140858 28 31389ft 346kts
04-Apr-19 21:08 -28.648085 153.195075 28 31390ft 345kts
04-Apr-19 21:09 -28.564591 153.249117 28 31392ft 345kts
04-Apr-19 21:10 -28.480651 153.303348 28 31393ft 345kts
04-Apr-19 21:11 -28.397103 153.357226 28 31395ft 345kts
04-Apr-19 21:12 -28.313599 153.410978 28 31396ft 346kts
04-Apr-19 21:13 -28.229424 153.465062 28 31398ft 346kts
04-Apr-19 21:14 -28.141579 153.506313 356 31400ft 337kts
04-Apr-19 21:15 -28.060107 153.502916 353 31401ft 335kts
04-Apr-19 21:16 -27.967149 153.501894 353 31401ft 336kts
04-Apr-19 21:17 -27.873218 153.500976 353 31389ft 335kts
04-Apr-19 21:18 -27.780164 153.500062 353 31390ft 334kts
04-Apr-19 21:19 -27.687630 153.499155 353 31392ft 333kts
04-Apr-19 21:20 -27.594714 153.498246 353 31381ft 333kts
04-Apr-19 21:21 -27.501553 153.497337 353 31368ft 333kts
04-Apr-19 21:22 -27.408999 153.496435 353 31368ft 333kts
04-Apr-19 21:23 -27.316015 153.495522 354 31371ft 333kts
04-Apr-19 21:24 -27.223188 153.494633 353 31371ft 333kts
04-Apr-19 21:25 -27.130832 153.493733 353 31372ft 333kts
04-Apr-19 21:26 -27.038284 153.492845 353 31373ft 333kts
04-Apr-19 21:27 -26.945909 153.491941 354 31374ft 332kts
04-Apr-19 21:28 -26.853351 153.491051 353 31363ft 331kts
04-Apr-19 21:29 -26.764177 153.479523 324 31365ft 310kts
04-Apr-19 21:30 -26.710356 153.414639 283 31366ft 265kts
04-Apr-19 21:31 -26.683901 153.340208 281 30222ft 266kts
04-Apr-19 21:32 -26.656413 153.260409 282 28257ft 280kts
04-Apr-19 21:33 -26.628000 153.177991 282 26268ft 287kts
04-Apr-19 21:34 -26.639333 153.103131 210 24243ft 254kts
04-Apr-19 21:35 -26.708215 153.086891 185 22255ft 258kts
04-Apr-19 21:36 -26.770334 153.083939 184 20522ft 261kts
04-Apr-19 21:37 -26.804587 153.082674 183 19575ft 263kts
04-Apr-19 21:38 -26.877934 153.079957 183 17567ft 266kts
04-Apr-19 21:39 -26.952399 153.077203 182 15547ft 267kts
04-Apr-19 21:40 -27.011741 153.121954 132 13521ft 275kts
04-Apr-19 21:41 -27.068356 153.174197 183 11438ft 271kts
04-Apr-19 21:42 -27.107567 153.107759 250 9435ft 279kts
04-Apr-19 21:43 -27.130051 153.022949 250 7424ft 282kts
04-Apr-19 21:44 -27.155110 152.940810 222 5827ft 261kts
04-Apr-19 21:45 -27.217438 152.925871 182 5860ft 222kts
04-Apr-19 21:46 -27.278124 152.918135 182 5866ft 218kts
04-Apr-19 21:47 -27.328631 152.935756 118 5884ft 207kts
04-Apr-19 21:48 -27.349678 152.994899 73 5846ft 214kts
04-Apr-19 21:49 -27.292736 153.015185 9 5867ft 229kts
04-Apr-19 21:50 -27.229300 153.021502 349 5846ft 235kts
04-Apr-19 21:51 -27.174864 152.980292 325 5250ft 236kts
04-Apr-19 21:52 -27.121828 152.937778 325 4046ft 232kts
04-Apr-19 21:53 -27.071425 152.939734 55 2837ft 206kts
04-Apr-19 21:54 -27.070079 152.992049 116 2231ft 177kts
04-Apr-19 21:55 -27.091383 153.040223 116 1854ft 161kts
04-Apr-19 21:56 -27.128315 153.045111 195 1873ft 158kts
04-Apr-19 21:57 -27.169708 153.027786 195 1847ft 145kts
04-Apr-19 21:58 -27.197662 153.042028 116 1975ft 127kts
04-Apr-19 21:59 -27.207310 153.075707 95 1811ft 104kts
04-Apr-19 22:00 -27.185729 153.084785 287 1269ft 148kts
04-Apr-19 22:01 -27.193512 153.044570 241 1322ft 127kts
04-Apr-19 22:02 -27.210032 153.049683 74 722ft 87kts
04-Apr-19 22:03 -27.205137 153.070839 71 10ft 38kts
04-Apr-19 22:04 -27.205969 153.073638 31 9ft 3kts

Navigation Log

Ident Type
Flight plan parsing failed, navigation log unavailable